Time;durP1;ratioP1;P1;durP2;ratioP2;P2;SDS_P1;SDS_P2;PMS_P1;PMS_P2;Temp;Humidity;BMP_temperature;BMP_pressure;BME280_temperature;BME280_humidity;BME280_pressure;Samples;Min_cycle;Max_cycle;Signal;HPM_P1;HPM_P2
2023/09/24 00:01:03;;;;;;;7.18;2.40;;;12.50;99.90;;;;;;5052243;28;20482;-66
2023/09/24 00:03:29;;;;;;;9.10;2.30;;;12.40;99.90;;;;;;5052337;28;20037;-66
2023/09/24 00:05:54;;;;;;;7.78;2.40;;;12.40;99.90;;;;;;5052806;28;20444;-66
2023/09/24 00:08:21;;;;;;;6.55;2.53;;;12.30;99.90;;;;;;5052960;28;20035;-66
2023/09/24 00:10:52;;;;;;;5.97;2.20;;;12.30;99.90;;;;;;5052363;28;20041;-66
2023/09/24 00:13:19;;;;;;;4.07;1.85;;;12.30;99.90;;;;;;5052622;28;20037;-66
2023/09/24 00:15:45;;;;;;;5.13;2.25;;;12.20;99.90;;;;;;5051685;28;20137;-66
2023/09/24 00:18:11;;;;;;;4.78;2.03;;;12.20;99.90;;;;;;5069021;28;20095;-66
2023/09/24 00:20:36;;;;;;;5.10;2.10;;;12.10;99.90;;;;;;5052417;28;20053;-66
2023/09/24 00:23:03;;;;;;;6.43;2.10;;;12.10;99.90;;;;;;5068552;28;20033;-66
2023/09/24 00:25:28;;;;;;;6.50;2.50;;;12.10;99.90;;;;;;5051983;28;20048;-66
2023/09/24 00:27:56;;;;;;;5.63;2.40;;;12.10;99.90;;;;;;5053283;28;20140;-66
2023/09/24 00:30:22;;;;;;;6.50;2.47;;;12.10;99.90;;;;;;5051344;28;20500;-66
2023/09/24 00:32:48;;;;;;;5.95;2.85;;;12.00;99.90;;;;;;5051979;28;20045;-66
2023/09/24 00:35:15;;;;;;;7.00;2.80;;;12.00;99.90;;;;;;5052041;28;20047;-66
2023/09/24 00:37:41;;;;;;;6.50;2.65;;;12.00;99.90;;;;;;5051055;28;20040;-66
2023/09/24 00:40:10;;;;;;;7.53;2.88;;;12.00;99.90;;;;;;5057866;28;20048;-66
2023/09/24 00:42:37;;;;;;;7.35;2.38;;;11.90;99.90;;;;;;5071642;28;20409;-66
2023/09/24 00:45:06;;;;;;;7.00;2.80;;;11.90;99.90;;;;;;5056996;28;20036;-66
2023/09/24 00:47:32;;;;;;;6.38;2.60;;;11.90;99.90;;;;;;5053134;28;20114;-66
2023/09/24 00:49:59;;;;;;;6.53;2.05;;;11.80;99.90;;;;;;5051032;28;20494;-66
2023/09/24 00:52:26;;;;;;;5.43;2.35;;;11.80;99.90;;;;;;5051874;28;20037;-66
2023/09/24 00:54:52;;;;;;;7.07;2.53;;;11.80;99.90;;;;;;5051463;28;20044;-66
2023/09/24 00:57:20;;;;;;;5.65;1.98;;;11.70;99.90;;;;;;5062004;28;20436;-66
2023/09/24 00:59:46;;;;;;;6.47;2.10;;;11.70;99.90;;;;;;5067015;28;20113;-66
2023/09/24 01:02:13;;;;;;;9.73;2.83;;;11.70;99.90;;;;;;5051496;28;20120;-66
2023/09/24 01:04:39;;;;;;;6.38;2.47;;;11.70;99.90;;;;;;5050496;28;20083;-66
2023/09/24 01:07:05;;;;;;;7.88;3.40;;;11.70;99.90;;;;;;5051555;28;20040;-66
2023/09/24 01:09:31;;;;;;;8.90;2.97;;;11.70;99.90;;;;;;5051168;28;20041;-66
2023/09/24 01:12:03;;;;;;;6.35;2.42;;;11.70;99.90;;;;;;5050558;28;20049;-66
2023/09/24 01:14:29;;;;;;;5.72;2.08;;;11.70;99.90;;;;;;5058137;28;20443;-66
2023/09/24 01:16:55;;;;;;;7.57;2.38;;;11.80;99.90;;;;;;5060709;28;20032;-66
2023/09/24 01:19:23;;;;;;;6.18;2.20;;;11.80;99.90;;;;;;5050372;28;20486;-66
2023/09/24 01:21:50;;;;;;;6.18;2.55;;;11.80;99.90;;;;;;5051331;28;20041;-66
2023/09/24 01:24:16;;;;;;;6.07;2.35;;;11.90;99.90;;;;;;5052094;28;20162;-66
2023/09/24 01:26:44;;;;;;;6.63;2.80;;;11.90;99.90;;;;;;5050216;28;20041;-66
2023/09/24 01:29:11;;;;;;;4.82;2.33;;;11.80;99.90;;;;;;5051210;28;20063;-66
2023/09/24 01:31:38;;;;;;;7.25;2.88;;;11.80;99.90;;;;;;5034341;28;20048;-66
2023/09/24 01:34:05;;;;;;;6.40;2.30;;;11.90;99.90;;;;;;5050367;28;20128;-66
2023/09/24 01:36:32;;;;;;;6.15;2.90;;;11.80;99.90;;;;;;5034156;28;20041;-66
2023/09/24 01:38:58;;;;;;;7.35;2.88;;;11.80;99.90;;;;;;5052311;28;20115;-66
2023/09/24 01:41:25;;;;;;;7.55;3.20;;;11.80;99.90;;;;;;5033466;28;20546;-66
2023/09/24 01:43:52;;;;;;;6.05;2.70;;;11.80;99.90;;;;;;5052778;28;20387;-66
2023/09/24 01:46:20;;;;;;;5.53;2.55;;;11.80;99.90;;;;;;5050170;28;20075;-66
2023/09/24 01:48:49;;;;;;;11.02;3.05;;;11.80;99.90;;;;;;5051775;28;20036;-66
2023/09/24 01:51:15;;;;;;;6.85;2.80;;;11.80;99.90;;;;;;5050543;28;20052;-66
2023/09/24 01:53:42;;;;;;;9.75;3.30;;;11.80;99.90;;;;;;5050006;28;20041;-66
2023/09/24 01:56:08;;;;;;;8.13;3.10;;;11.70;99.90;;;;;;5050826;28;20041;-66
2023/09/24 01:58:38;;;;;;;6.25;2.40;;;11.70;99.90;;;;;;5050877;28;20041;-65
2023/09/24 02:01:03;;;;;;;7.25;2.88;;;11.80;99.90;;;;;;5033427;28;20045;-66
2023/09/24 02:03:30;;;;;;;7.25;3.15;;;11.80;99.90;;;;;;5050522;28;20410;-66
2023/09/24 02:05:56;;;;;;;7.75;2.95;;;11.70;99.90;;;;;;5050922;28;20041;-66
2023/09/24 02:08:21;;;;;;;7.40;3.28;;;11.70;99.90;;;;;;5065312;28;20474;-66
2023/09/24 02:10:47;;;;;;;8.70;2.60;;;11.80;99.90;;;;;;5064951;28;20045;-66
2023/09/24 02:13:14;;;;;;;7.85;3.20;;;11.80;99.90;;;;;;5050720;28;20155;-66
2023/09/24 02:15:41;;;;;;;7.65;2.78;;;11.80;99.90;;;;;;5049616;28;20052;-65
2023/09/24 02:18:07;;;;;;;6.20;2.78;;;11.80;99.90;;;;;;5050422;28;20041;-66
2023/09/24 02:20:33;;;;;;;4.78;2.58;;;11.80;99.90;;;;;;5050446;28;20397;-65
2023/09/24 02:23:04;;;;;;;6.03;2.40;;;11.80;99.90;;;;;;5049814;28;20045;-66
2023/09/24 02:25:32;;;;;;;6.65;2.72;;;11.90;99.90;;;;;;5050485;28;20394;-67
2023/09/24 02:27:58;;;;;;;6.13;2.40;;;11.80;99.90;;;;;;5050595;28;20563;-66
2023/09/24 02:30:29;;;;;;;5.85;2.72;;;11.90;99.90;;;;;;5049498;28;20041;-65
2023/09/24 02:32:56;;;;;;;9.70;3.63;;;12.00;99.90;;;;;;5050812;28;20041;-65
2023/09/24 02:35:22;;;;;;;6.93;3.13;;;12.00;99.90;;;;;;5050395;28;20432;-66
2023/09/24 02:37:52;;;;;;;8.77;3.00;;;12.00;99.90;;;;;;5049857;28;20041;-66
2023/09/24 02:40:23;;;;;;;6.68;2.80;;;12.00;99.90;;;;;;5050407;28;20045;-66
2023/09/24 02:42:52;;;;;;;6.88;2.60;;;12.10;99.90;;;;;;5049568;28;20482;-66
2023/09/24 02:45:18;;;;;;;7.18;3.72;;;12.20;99.90;;;;;;5050281;28;20049;-65
2023/09/24 02:47:49;;;;;;;7.22;2.90;;;12.20;99.90;;;;;;5084465;28;20044;-65
2023/09/24 02:50:22;;;;;;;8.02;3.47;;;12.20;99.90;;;;;;5072556;28;20056;-65
2023/09/24 02:52:49;;;;;;;12.20;3.90;;;12.20;99.90;;;;;;5057650;28;20044;-65
2023/09/24 02:55:15;;;;;;;7.03;3.00;;;12.30;99.90;;;;;;5073801;28;20040;-66
2023/09/24 02:57:44;;;;;;;7.70;3.58;;;12.30;99.90;;;;;;5073003;28;20048;-65
2023/09/24 03:00:15;;;;;;;7.20;3.22;;;12.40;99.90;;;;;;5074841;28;20047;-66
2023/09/24 03:02:41;;;;;;;7.97;3.55;;;12.40;99.90;;;;;;5074043;28;20125;-65
2023/09/24 03:05:19;;;;;;;9.18;4.50;;;12.40;99.90;;;;;;5057174;28;20053;-65
2023/09/24 03:07:45;;;;;;;8.88;3.65;;;12.50;99.90;;;;;;5070290;28;20045;-66
2023/09/24 03:10:13;;;;;;;7.05;3.50;;;12.50;99.90;;;;;;5053715;28;20049;-65
2023/09/24 03:12:41;;;;;;;10.32;4.18;;;12.50;99.90;;;;;;5052512;28;20045;-66
2023/09/24 03:15:10;;;;;;;7.18;3.85;;;12.60;99.90;;;;;;5036909;28;20068;-66
2023/09/24 03:17:39;;;;;;;8.48;3.75;;;12.60;99.90;;;;;;5053234;28;20049;-66
2023/09/24 03:20:15;;;;;;;7.30;4.63;;;12.60;99.90;;;;;;5053778;28;20072;-66
2023/09/24 03:23:02;;;;;;;9.15;3.90;;;12.60;99.90;;;;;;5053350;28;20045;-65
2023/09/24 03:25:29;;;;;;;9.02;4.65;;;12.60;99.90;;;;;;5052260;28;20053;-66
2023/09/24 03:27:57;;;;;;;8.73;4.32;;;12.60;99.90;;;;;;5054918;28;20041;-65
2023/09/24 03:30:23;;;;;;;7.13;4.20;;;12.70;99.90;;;;;;5053158;28;20044;-65
2023/09/24 03:32:51;;;;;;;7.65;4.10;;;12.70;99.90;;;;;;5052502;28;20052;-66
2023/09/24 03:35:19;;;;;;;6.13;3.80;;;12.70;99.90;;;;;;5053521;28;20464;-66
2023/09/24 03:37:45;;;;;;;9.18;4.03;;;12.70;99.90;;;;;;5053482;28;20366;-66
2023/09/24 03:40:16;;;;;;;11.82;5.05;;;12.70;99.90;;;;;;5052472;28;20147;-66
2023/09/24 03:42:42;;;;;;;6.60;3.60;;;12.60;99.90;;;;;;5059680;28;20043;-66
2023/09/24 03:45:10;;;;;;;9.63;4.68;;;12.60;99.90;;;;;;5073120;28;20079;-66
2023/09/24 03:47:38;;;;;;;9.05;4.70;;;12.60;99.90;;;;;;5072314;28;20048;-66
2023/09/24 03:50:05;;;;;;;10.55;4.57;;;12.50;99.90;;;;;;5072799;28;20056;-66
2023/09/24 03:52:31;;;;;;;8.25;4.10;;;12.50;99.90;;;;;;5073054;28;20041;-66
2023/09/24 03:54:59;;;;;;;10.35;4.97;;;12.50;99.90;;;;;;5072495;28;20056;-66
2023/09/24 03:57:27;;;;;;;7.63;4.35;;;12.40;99.90;;;;;;5073015;28;20044;-66
2023/09/24 03:59:57;;;;;;;9.13;4.80;;;12.40;99.90;;;;;;5071545;28;20040;-66
2023/09/24 04:02:23;;;;;;;8.77;3.88;;;12.40;99.90;;;;;;5063136;28;20037;-63
2023/09/24 04:04:50;;;;;;;8.90;5.18;;;12.40;99.90;;;;;;5052613;28;20033;-63
2023/09/24 04:07:16;;;;;;;8.93;4.35;;;12.30;99.90;;;;;;5051745;28;20052;-63
2023/09/24 04:09:43;;;;;;;8.25;5.07;;;12.20;99.90;;;;;;5052643;28;20040;-63
2023/09/24 04:12:09;;;;;;;10.65;5.30;;;12.20;99.90;;;;;;5052648;28;20575;-63
2023/09/24 04:14:36;;;;;;;8.40;4.53;;;12.20;99.90;;;;;;5069944;28;20044;-63
2023/09/24 04:17:05;;;;;;;6.72;4.15;;;12.10;99.90;;;;;;5052871;28;20455;-63
2023/09/24 04:19:33;;;;;;;11.70;5.45;;;12.10;99.90;;;;;;5052632;28;20056;-63
2023/09/24 04:21:59;;;;;;;10.57;5.38;;;12.00;99.90;;;;;;5052057;28;20478;-65
2023/09/24 04:24:25;;;;;;;7.97;4.30;;;12.00;99.90;;;;;;5052378;28;20052;-66
2023/09/24 04:26:54;;;;;;;9.45;4.65;;;12.10;99.90;;;;;;5053562;28;20386;-66
2023/09/24 04:29:20;;;;;;;10.50;5.60;;;12.10;99.90;;;;;;5067830;28;20120;-66
2023/09/24 04:31:46;;;;;;;9.98;5.35;;;12.00;99.90;;;;;;5054792;28;20115;-65
2023/09/24 04:34:13;;;;;;;9.85;5.47;;;12.00;99.90;;;;;;5071562;28;20128;-65
2023/09/24 04:36:41;;;;;;;9.07;5.05;;;12.00;99.90;;;;;;5071457;28;20050;-65
2023/09/24 04:39:10;;;;;;;10.98;5.63;;;12.00;99.90;;;;;;5072005;28;20041;-66
2023/09/24 04:41:39;;;;;;;9.80;6.07;;;12.00;99.90;;;;;;5071992;28;20438;-66
2023/09/24 04:44:08;;;;;;;8.73;5.45;;;12.10;99.90;;;;;;5071150;28;20076;-65
2023/09/24 04:46:35;;;;;;;12.75;4.85;;;12.10;99.90;;;;;;5070892;28;20047;-65
2023/09/24 04:49:04;;;;;;;9.13;5.60;;;12.10;99.90;;;;;;5071911;28;20075;-66
2023/09/24 04:51:32;;;;;;;11.30;5.57;;;12.10;99.90;;;;;;5054830;28;20056;-65
2023/09/24 04:54:00;;;;;;;10.32;5.80;;;12.10;99.90;;;;;;5064911;28;20091;-66
2023/09/24 04:56:27;;;;;;;9.73;5.45;;;12.20;99.90;;;;;;5050934;28;20052;-66
2023/09/24 04:58:52;;;;;;;10.43;5.68;;;12.10;99.90;;;;;;5051536;28;20036;-66
2023/09/24 05:01:18;;;;;;;12.88;5.57;;;12.20;99.90;;;;;;5051334;28;20044;-66
2023/09/24 05:03:43;;;;;;;10.35;5.70;;;12.10;99.90;;;;;;5050833;28;20128;-65
2023/09/24 05:06:09;;;;;;;11.63;6.40;;;12.20;99.90;;;;;;5034754;28;20455;-65
2023/09/24 05:08:35;;;;;;;10.88;5.68;;;12.10;99.90;;;;;;5051292;28;20045;-66
2023/09/24 05:11:02;;;;;;;10.77;5.85;;;12.20;99.90;;;;;;5050325;28;20049;-66
2023/09/24 05:13:28;;;;;;;8.18;5.22;;;12.20;99.90;;;;;;5051270;28;20152;-66
2023/09/24 05:15:58;;;;;;;11.30;5.88;;;12.20;99.90;;;;;;5034848;28;20522;-66
2023/09/24 05:18:24;;;;;;;10.82;5.60;;;12.20;99.90;;;;;;5033776;28;20033;-66
2023/09/24 05:20:49;;;;;;;11.45;5.75;;;12.20;99.90;;;;;;5051193;28;20074;-66
2023/09/24 05:23:15;;;;;;;10.60;5.18;;;12.10;99.90;;;;;;5051401;28;20041;-63
2023/09/24 05:25:41;;;;;;;11.88;6.03;;;12.20;99.90;;;;;;5061366;28;20048;-63
2023/09/24 05:28:07;;;;;;;10.10;5.82;;;12.10;99.90;;;;;;5070919;28;20055;-63
2023/09/24 05:30:34;;;;;;;12.95;5.45;;;12.10;99.90;;;;;;5071042;28;20051;-63
2023/09/24 05:33:00;;;;;;;8.68;5.55;;;12.10;99.90;;;;;;5060380;28;20405;-63
2023/09/24 05:35:26;;;;;;;9.15;4.70;;;12.10;99.90;;;;;;5034536;28;20136;-63
2023/09/24 05:37:51;;;;;;;13.00;6.05;;;12.00;99.90;;;;;;5051108;28;20466;-63
2023/09/24 05:40:17;;;;;;;9.57;5.65;;;12.00;99.90;;;;;;5049788;28;20053;-63
2023/09/24 05:42:43;;;;;;;10.40;5.63;;;12.00;99.90;;;;;;5034545;28;20049;-63
2023/09/24 05:45:09;;;;;;;8.82;5.50;;;11.90;99.90;;;;;;5050718;28;20533;-63
2023/09/24 05:47:35;;;;;;;10.43;5.78;;;11.90;99.90;;;;;;5049896;28;20506;-63
2023/09/24 05:50:03;;;;;;;9.77;5.65;;;11.90;99.90;;;;;;5066345;28;20064;-65
2023/09/24 05:52:29;;;;;;;9.63;5.80;;;11.90;99.90;;;;;;5052985;28;20370;-65
2023/09/24 05:54:56;;;;;;;9.73;6.05;;;11.90;99.90;;;;;;5072307;28;20394;-65
2023/09/24 05:57:21;;;;;;;9.63;5.57;;;11.90;99.90;;;;;;5053919;28;20032;-66
2023/09/24 05:59:47;;;;;;;8.13;4.93;;;11.90;99.90;;;;;;5069194;28;20052;-66
2023/09/24 06:02:13;;;;;;;9.88;6.18;;;11.80;99.90;;;;;;5070695;28;20040;-65
2023/09/24 06:04:38;;;;;;;8.88;5.25;;;11.90;99.90;;;;;;5069571;28;20048;-66
2023/09/24 06:07:05;;;;;;;9.93;5.82;;;11.80;99.90;;;;;;5070419;28;20040;-66
2023/09/24 06:09:31;;;;;;;10.80;5.97;;;11.80;99.90;;;;;;5070074;28;20040;-65
2023/09/24 06:11:57;;;;;;;9.82;5.90;;;11.90;99.90;;;;;;5070816;28;20052;-65
2023/09/24 06:14:22;;;;;;;11.23;6.78;;;11.80;99.90;;;;;;5069865;28;20493;-66
2023/09/24 06:16:48;;;;;;;12.57;5.97;;;11.80;99.90;;;;;;5070453;28;20032;-65
2023/09/24 06:19:14;;;;;;;11.25;6.30;;;11.80;99.90;;;;;;5070005;28;20068;-66
2023/09/24 06:21:39;;;;;;;9.65;5.55;;;11.90;99.90;;;;;;5068099;28;20056;-66
2023/09/24 06:24:06;;;;;;;11.40;6.18;;;11.90;99.90;;;;;;5071199;28;20401;-65
2023/09/24 06:26:32;;;;;;;9.68;5.80;;;11.90;99.90;;;;;;5083490;28;20057;-66
2023/09/24 06:28:58;;;;;;;11.32;6.38;;;11.90;99.90;;;;;;5054812;28;20049;-65
2023/09/24 06:31:24;;;;;;;11.23;6.25;;;11.90;99.90;;;;;;5062504;28;20119;-65
2023/09/24 06:33:50;;;;;;;11.63;6.30;;;11.90;99.90;;;;;;5054370;28;20470;-66
2023/09/24 06:36:16;;;;;;;10.32;5.93;;;12.00;99.90;;;;;;5037114;28;20033;-66
2023/09/24 06:38:44;;;;;;;10.10;5.63;;;12.00;99.90;;;;;;5066817;28;20055;-64
2023/09/24 06:41:09;;;;;;;10.88;6.65;;;12.00;99.90;;;;;;5073707;28;20055;-64
2023/09/24 06:43:36;;;;;;;12.07;6.68;;;12.00;99.90;;;;;;5072454;28;20037;-64
2023/09/24 06:46:05;;;;;;;12.75;5.95;;;12.10;99.90;;;;;;5057828;28;20071;-64
2023/09/24 06:48:32;;;;;;;11.27;6.22;;;12.00;99.90;;;;;;5053730;28;20069;-64
2023/09/24 06:51:09;;;;;;;10.70;7.03;;;12.10;99.90;;;;;;5057402;28;20077;-64
2023/09/24 06:53:39;;;;;;;13.60;6.80;;;12.10;99.90;;;;;;5053622;28;20041;-63
2023/09/24 06:56:09;;;;;;;10.52;5.43;;;12.10;99.90;;;;;;5051511;28;20028;-64
2023/09/24 06:58:35;;;;;;;13.40;5.93;;;12.10;99.90;;;;;;5045954;28;20036;-64
2023/09/24 07:01:06;;;;;;;9.90;5.78;;;12.10;99.90;;;;;;5052774;28;20093;-64
2023/09/24 07:03:32;;;;;;;12.23;6.95;;;12.10;99.90;;;;;;5062158;28;20107;-66
2023/09/24 07:05:57;;;;;;;14.75;6.18;;;12.10;99.90;;;;;;5036095;28;20781;-66
2023/09/24 07:08:23;;;;;;;11.32;5.72;;;12.10;99.90;;;;;;5067662;28;20102;-65
2023/09/24 07:11:21;;;;;;;8.70;5.65;;;12.20;99.90;;;;;;5070842;28;20790;-65
2023/09/24 07:13:47;;;;;;;11.95;6.10;;;12.10;99.90;;;;;;5057707;28;20048;-65
2023/09/24 07:16:13;;;;;;;13.77;6.80;;;12.20;99.90;;;;;;5069274;28;20117;-63
2023/09/24 07:18:39;;;;;;;19.17;6.63;;;12.30;99.90;;;;;;5055857;28;20102;-63
2023/09/24 07:21:05;;;;;;;10.73;5.78;;;12.30;99.90;;;;;;5050494;28;20064;-63
2023/09/24 07:23:31;;;;;;;12.00;6.05;;;12.40;99.90;;;;;;5055614;28;20507;-64
2023/09/24 07:25:57;;;;;;;11.02;6.05;;;12.40;99.90;;;;;;5054490;28;20052;-64
2023/09/24 07:28:24;;;;;;;10.15;6.60;;;12.50;99.90;;;;;;5053724;28;20055;-64
2023/09/24 07:30:53;;;;;;;12.45;5.93;;;12.60;99.90;;;;;;5050162;28;20409;-64
2023/09/24 07:33:21;;;;;;;9.85;5.63;;;12.60;99.90;;;;;;5054079;28;20036;-64
2023/09/24 07:35:46;;;;;;;11.88;6.45;;;12.70;99.90;;;;;;5049909;28;20709;-66
2023/09/24 07:38:12;;;;;;;14.48;6.60;;;12.80;99.90;;;;;;5051569;28;20041;-65
2023/09/24 07:40:39;;;;;;;13.55;7.07;;;12.90;99.90;;;;;;5045357;28;20590;-63
2023/09/24 07:43:08;;;;;;;10.90;6.13;;;13.00;99.90;;;;;;5038021;28;20040;-65
2023/09/24 07:45:35;;;;;;;10.32;6.57;;;13.00;99.90;;;;;;5053873;28;20124;-65
2023/09/24 07:48:06;;;;;;;13.57;5.93;;;13.10;99.90;;;;;;5070575;28;20135;-65
2023/09/24 07:50:32;;;;;;;10.75;6.18;;;13.10;99.90;;;;;;5057110;28;20060;-66
2023/09/24 07:52:58;;;;;;;10.10;5.35;;;13.20;99.90;;;;;;5055414;28;20049;-66
2023/09/24 07:55:23;;;;;;;11.07;5.50;;;13.20;99.90;;;;;;5050266;28;20047;-66
2023/09/24 07:57:49;;;;;;;10.18;5.68;;;13.30;99.90;;;;;;5050547;28;20131;-66
2023/09/24 08:00:16;;;;;;;10.27;5.30;;;13.30;99.90;;;;;;5049976;28;20600;-66
2023/09/24 08:02:44;;;;;;;9.75;5.20;;;13.40;99.90;;;;;;5050435;28;20044;-64
2023/09/24 08:05:10;;;;;;;10.73;5.25;;;13.40;99.90;;;;;;5050197;28;20041;-64
2023/09/24 08:07:36;;;;;;;11.05;5.63;;;13.50;99.90;;;;;;5049915;28;20037;-64
2023/09/24 08:10:02;;;;;;;9.57;4.63;;;13.50;99.90;;;;;;5057676;28;20371;-64
2023/09/24 08:12:27;;;;;;;11.07;4.68;;;13.60;99.90;;;;;;5051107;28;20123;-64
2023/09/24 08:14:53;;;;;;;9.18;4.45;;;13.70;99.90;;;;;;5050445;28;20076;-64
2023/09/24 08:17:19;;;;;;;9.15;5.60;;;13.70;99.90;;;;;;5051855;28;20041;-64
2023/09/24 08:19:45;;;;;;;10.52;4.50;;;13.80;99.90;;;;;;5052531;28;20481;-64
2023/09/24 08:22:10;;;;;;;11.18;4.80;;;13.90;99.90;;;;;;5067750;28;20044;-64
2023/09/24 08:24:36;;;;;;;10.95;4.43;;;14.00;99.90;;;;;;5058846;28;20115;-64
2023/09/24 08:27:02;;;;;;;8.30;4.00;;;14.00;99.90;;;;;;5049775;28;20127;-64
2023/09/24 08:29:28;;;;;;;8.15;5.28;;;14.10;99.90;;;;;;5049147;28;20131;-64
2023/09/24 08:31:54;;;;;;;9.75;4.38;;;14.20;99.90;;;;;;5050594;28;20048;-64
2023/09/24 08:34:20;;;;;;;7.13;4.00;;;14.20;99.90;;;;;;5051773;28;20043;-64
2023/09/24 08:36:45;;;;;;;7.75;4.00;;;14.30;99.90;;;;;;5053685;28;20045;-63
2023/09/24 08:39:14;;;;;;;10.25;3.97;;;14.40;99.90;;;;;;5031471;28;20117;-64
2023/09/24 08:41:44;;;;;;;8.80;4.18;;;14.50;99.90;;;;;;5048803;28;20128;-63
2023/09/24 08:44:14;;;;;;;9.20;4.07;;;14.50;99.90;;;;;;5049604;28;20055;-66
2023/09/24 08:46:41;;;;;;;11.23;4.25;;;14.60;99.90;;;;;;5050813;28;20036;-68
2023/09/24 08:49:08;;;;;;;10.48;3.70;;;14.60;99.90;;;;;;5054436;28;20049;-64
2023/09/24 08:51:34;;;;;;;7.55;3.53;;;14.70;99.90;;;;;;5048903;28;20056;-63
2023/09/24 08:54:01;;;;;;;7.22;4.10;;;14.80;99.90;;;;;;5082961;28;20355;-63
2023/09/24 08:56:27;;;;;;;9.60;3.33;;;14.80;99.90;;;;;;5048406;28;20141;-65
2023/09/24 08:58:54;;;;;;;8.45;4.15;;;14.90;99.90;;;;;;5049567;28;20121;-63
2023/09/24 09:01:20;;;;;;;12.88;4.32;;;14.90;99.90;;;;;;5050010;28;20053;-64
2023/09/24 09:03:47;;;;;;;9.40;4.35;;;15.00;99.90;;;;;;5068722;28;20071;-65
2023/09/24 09:06:30;;;;;;;8.52;4.03;;;15.00;99.90;;;;;;5069043;28;20055;-65
2023/09/24 09:08:57;;;;;;;7.70;3.70;;;15.00;99.90;;;;;;5032780;28;20077;-64
2023/09/24 09:11:46;;;;;;;7.03;4.00;;;15.00;99.90;;;;;;5048271;28;20048;-64
2023/09/24 09:14:12;;;;;;;12.45;4.53;;;15.10;99.90;;;;;;5052724;28;20033;-65
2023/09/24 09:16:57;;;;;;;7.07;3.70;;;15.20;99.90;;;;;;5048466;28;20110;-65
2023/09/24 09:19:44;;;;;;;8.23;3.53;;;15.20;99.90;;;;;;5048829;28;20436;-64
2023/09/24 09:22:22;;;;;;;9.52;3.30;;;15.20;99.90;;;;;;5048685;28;20053;-65
2023/09/24 09:25:08;;;;;;;8.82;3.70;;;15.30;99.90;;;;;;5047434;28;20075;-65
2023/09/24 09:27:36;;;;;;;10.75;3.90;;;15.40;99.90;;;;;;5033082;28;20485;-65
2023/09/24 09:30:16;;;;;;;8.70;3.08;;;15.40;99.90;;;;;;5051383;28;20529;-65
2023/09/24 09:32:44;;;;;;;7.55;3.30;;;15.50;99.90;;;;;;5033609;28;20048;-65
2023/09/24 09:35:10;;;;;;;7.32;3.10;;;15.50;99.90;;;;;;5051336;28;20041;-65
2023/09/24 09:37:39;;;;;;;8.25;3.03;;;15.60;99.90;;;;;;5033789;28;20055;-65
2023/09/24 09:40:06;;;;;;;7.28;3.30;;;15.60;99.90;;;;;;5052332;28;20075;-66
2023/09/24 09:42:35;;;;;;;7.68;2.45;;;15.70;99.90;;;;;;5050590;28;20045;-66
2023/09/24 09:45:07;;;;;;;8.55;2.95;;;15.70;99.90;;;;;;5050495;28;20045;-67
2023/09/24 09:47:37;;;;;;;9.00;2.90;;;15.70;99.90;;;;;;5051200;28;20397;-66
2023/09/24 09:50:04;;;;;;;7.60;2.85;;;15.70;99.90;;;;;;5056292;28;20048;-67
2023/09/24 09:52:34;;;;;;;7.65;3.00;;;15.80;99.90;;;;;;5049830;28;20084;-66
2023/09/24 09:55:03;;;;;;;8.90;2.33;;;15.80;99.90;;;;;;5066246;28;20044;-66
2023/09/24 09:57:33;;;;;;;8.18;2.15;;;15.90;99.90;;;;;;5063721;28;20368;-65
2023/09/24 10:00:00;;;;;;;6.28;2.58;;;15.90;99.90;;;;;;5047193;28;20044;-65
2023/09/24 10:02:29;;;;;;;8.18;3.03;;;15.90;99.90;;;;;;5037927;28;20048;-65
2023/09/24 10:04:57;;;;;;;7.63;2.63;;;15.90;99.90;;;;;;5050812;28;20072;-64
2023/09/24 10:07:23;;;;;;;8.35;2.40;;;15.90;99.90;;;;;;5050034;28;20045;-63
2023/09/24 10:09:50;;;;;;;6.32;2.70;;;16.00;99.90;;;;;;5050577;28;20565;-62
2023/09/24 10:12:36;;;;;;;7.43;2.92;;;16.00;99.90;;;;;;5058924;28;20052;-63
2023/09/24 10:15:27;;;;;;;8.50;3.13;;;16.10;99.90;;;;;;5051915;28;20084;-65
2023/09/24 10:18:11;;;;;;;8.68;2.55;;;16.10;99.90;;;;;;5070884;28;20051;-66
2023/09/24 10:20:49;;;;;;;8.00;2.85;;;16.10;99.90;;;;;;5070065;28;20053;-69
2023/09/24 10:23:30;;;;;;;6.72;2.38;;;16.20;99.90;;;;;;5068983;28;20454;-64
2023/09/24 10:26:05;;;;;;;10.15;2.70;;;16.30;99.90;;;;;;5070707;28;20127;-65
2023/09/24 10:28:47;;;;;;;7.60;2.60;;;16.40;99.90;;;;;;5069673;28;20041;-63
2023/09/24 10:31:14;;;;;;;10.05;3.05;;;16.50;99.90;;;;;;5070200;28;20047;-64
2023/09/24 10:33:58;;;;;;;7.95;2.80;;;16.60;99.90;;;;;;5044810;28;20047;-64
2023/09/24 10:36:36;;;;;;;8.23;2.60;;;16.60;99.90;;;;;;5050464;28;20041;-64
2023/09/24 10:39:05;;;;;;;6.65;2.30;;;16.70;99.90;;;;;;5050971;28;20045;-63
2023/09/24 10:41:32;;;;;;;7.18;2.60;;;16.70;99.90;;;;;;5049597;28;20123;-63
2023/09/24 10:44:23;;;;;;;7.05;2.47;;;16.70;99.90;;;;;;5050459;28;20116;-63
2023/09/24 10:46:48;;;;;;;6.90;2.20;;;16.70;99.90;;;;;;5052326;28;20466;-63
2023/09/24 10:49:24;;;;;;;8.02;2.30;;;16.70;99.90;;;;;;5066274;28;20085;-63
2023/09/24 10:51:59;;;;;;;5.93;2.28;;;16.80;99.90;;;;;;5050112;28;20049;-64
2023/09/24 10:54:25;;;;;;;5.97;1.95;;;16.80;99.90;;;;;;5050082;28;20041;-63
2023/09/24 10:56:51;;;;;;;7.32;2.38;;;17.00;99.90;;;;;;5049610;28;20076;-64
2023/09/24 10:59:33;;;;;;;7.20;3.13;;;17.00;99.90;;;;;;5049960;28;20502;-62
2023/09/24 11:02:14;;;;;;;7.97;2.03;;;17.10;99.90;;;;;;5050439;28;20041;-63
2023/09/24 11:04:40;;;;;;;8.57;2.80;;;17.10;99.90;;;;;;5030551;28;20045;-63
2023/09/24 11:07:09;;;;;;;7.70;1.85;;;17.10;99.90;;;;;;5063381;28;20037;-63
2023/09/24 11:09:35;;;;;;;7.63;2.25;;;17.10;99.90;;;;;;5029511;28;20471;-63
2023/09/24 11:12:01;;;;;;;6.68;2.35;;;17.20;99.90;;;;;;5067202;28;20037;-63
2023/09/24 11:14:27;;;;;;;7.28;2.33;;;17.30;99.90;;;;;;5033678;28;20050;-63
2023/09/24 11:16:55;;;;;;;8.35;2.28;;;17.30;99.90;;;;;;5066383;28;20164;-63
2023/09/24 11:19:44;;;;;;;8.63;2.35;;;17.40;99.90;;;;;;5050332;28;20123;-63
2023/09/24 11:22:24;;;;;;;5.20;1.90;;;17.40;99.90;;;;;;5066632;28;20057;-64
2023/09/24 11:25:11;;;;;;;5.82;2.05;;;17.40;99.90;;;;;;5033008;28;20053;-64
2023/09/24 11:27:49;;;;;;;7.80;2.30;;;17.40;99.90;;;;;;5034707;28;20046;-63
2023/09/24 11:30:16;;;;;;;4.80;2.00;;;17.50;99.90;;;;;;5065872;28;20046;-64
2023/09/24 11:32:42;;;;;;;6.82;2.70;;;17.50;99.90;;;;;;5033467;28;20425;-64
2023/09/24 11:35:13;;;;;;;6.32;2.13;;;17.40;99.90;;;;;;5033420;28;20091;-64
2023/09/24 11:38:01;;;;;;;6.47;2.05;;;17.40;99.90;;;;;;5059659;28;20074;-64
2023/09/24 11:40:34;;;;;;;7.05;2.00;;;17.30;99.90;;;;;;5061742;28;20440;-68
2023/09/24 11:43:11;;;;;;;7.18;2.42;;;17.30;99.90;;;;;;5053761;28;20072;-65
2023/09/24 11:45:48;;;;;;;5.78;2.10;;;17.20;99.90;;;;;;5058050;28;20140;-65
2023/09/24 11:48:19;;;;;;;9.23;3.35;;;17.20;99.90;;;;;;5061105;28;20405;-65
2023/09/24 11:50:56;;;;;;;8.25;2.38;;;17.30;99.90;;;;;;5033069;28;20072;-65
2023/09/24 11:53:25;;;;;;;6.80;2.33;;;17.40;99.90;;;;;;5046881;28;20449;-67
2023/09/24 11:55:57;;;;;;;6.70;2.22;;;17.50;99.90;;;;;;5033252;28;20045;-67
2023/09/24 11:58:26;;;;;;;4.85;1.95;;;17.50;99.90;;;;;;5050876;28;20045;-67
2023/09/24 12:00:53;;;;;;;9.07;2.30;;;17.60;99.90;;;;;;5050259;28;20127;-67
2023/09/24 12:03:20;;;;;;;7.40;1.90;;;17.70;99.90;;;;;;5047992;28;20099;-67
2023/09/24 12:05:47;;;;;;;6.72;2.38;;;17.70;99.90;;;;;;5048402;28;20052;-66
2023/09/24 12:08:13;;;;;;;5.55;1.90;;;17.80;99.90;;;;;;5049431;28;20333;-65
2023/09/24 12:10:41;;;;;;;6.00;2.20;;;17.80;99.90;;;;;;5049301;28;20118;-65
2023/09/24 12:13:10;;;;;;;4.30;2.03;;;17.80;99.90;;;;;;5082241;28;20041;-65
2023/09/24 12:15:36;;;;;;;6.35;1.80;;;17.90;99.90;;;;;;5049526;28;20033;-66
2023/09/24 12:18:06;;;;;;;5.80;1.88;;;18.00;99.90;;;;;;5049723;28;20041;-64
2023/09/24 12:20:34;;;;;;;4.70;1.77;;;18.00;99.90;;;;;;5048375;28;20048;-64
2023/09/24 12:23:01;;;;;;;5.25;1.83;;;18.10;99.90;;;;;;5050929;28;20072;-68
2023/09/24 12:25:28;;;;;;;5.03;1.70;;;18.20;99.90;;;;;;5034238;28;20033;-66
2023/09/24 12:27:53;;;;;;;5.75;1.90;;;18.20;99.90;;;;;;5048813;28;20102;-65
2023/09/24 12:30:19;;;;;;;5.22;1.88;;;18.20;99.90;;;;;;5052358;28;20410;-64
2023/09/24 12:32:45;;;;;;;6.72;2.20;;;18.30;99.90;;;;;;5047789;28;20627;-68
2023/09/24 12:35:11;;;;;;;6.57;1.85;;;18.30;99.90;;;;;;5049712;28;20062;-67
2023/09/24 12:37:41;;;;;;;3.92;1.58;;;18.20;99.90;;;;;;5050778;28;20049;-66
2023/09/24 12:40:10;;;;;;;5.78;2.00;;;18.20;99.90;;;;;;5032241;28;20102;-66
2023/09/24 12:42:37;;;;;;;5.78;2.10;;;18.10;99.90;;;;;;5054202;28;20052;-66
2023/09/24 12:45:04;;;;;;;6.32;2.33;;;18.00;99.90;;;;;;5069246;28;20044;-66
2023/09/24 12:47:33;;;;;;;7.57;2.15;;;18.00;99.90;;;;;;5067829;28;20053;-66
2023/09/24 12:50:01;;;;;;;5.80;1.85;;;18.00;99.90;;;;;;5069257;28;20056;-66